sensor_id;sensor_type;location;lat;lon;timestamp;P1;durP1;ratioP1;P2;durP2;ratioP2
37284;SDS011;23172;53.550;9.964;2023-04-05T00:04:43;2.65;;;2.08;;
37284;SDS011;23172;53.550;9.964;2023-04-05T00:09:51;2.67;;;1.85;;
37284;SDS011;23172;53.550;9.964;2023-04-05T00:14:55;1.98;;;1.75;;
37284;SDS011;23172;53.550;9.964;2023-04-05T00:19:56;4.10;;;1.95;;
37284;SDS011;23172;53.550;9.964;2023-04-05T00:24:58;2.28;;;1.90;;
37284;SDS011;23172;53.550;9.964;2023-04-05T00:30:02;3.78;;;2.15;;
37284;SDS011;23172;53.550;9.964;2023-04-05T00:35:05;2.80;;;1.90;;
37284;SDS011;23172;53.550;9.964;2023-04-05T00:40:07;1.95;;;1.50;;
37284;SDS011;23172;53.550;9.964;2023-04-05T00:45:11;2.05;;;1.60;;
37284;SDS011;23172;53.550;9.964;2023-04-05T00:50:14;4.13;;;2.25;;
37284;SDS011;23172;53.550;9.964;2023-04-05T00:55:17;2.55;;;1.58;;
37284;SDS011;23172;53.550;9.964;2023-04-05T01:00:21;2.42;;;1.90;;
37284;SDS011;23172;53.550;9.964;2023-04-05T01:05:27;3.88;;;2.70;;
37284;SDS011;23172;53.550;9.964;2023-04-05T01:10:38;3.90;;;2.40;;
37284;SDS011;23172;53.550;9.964;2023-04-05T01:15:44;5.50;;;3.45;;
37284;SDS011;23172;53.550;9.964;2023-04-05T01:20:48;3.85;;;2.60;;
37284;SDS011;23172;53.550;9.964;2023-04-05T01:26:14;3.38;;;2.63;;
37284;SDS011;23172;53.550;9.964;2023-04-05T01:31:46;4.68;;;3.00;;
37284;SDS011;23172;53.550;9.964;2023-04-05T01:36:53;6.40;;;3.17;;
37284;SDS011;23172;53.550;9.964;2023-04-05T01:41:57;5.18;;;3.63;;
37284;SDS011;23172;53.550;9.964;2023-04-05T01:47:01;4.82;;;3.13;;
37284;SDS011;23172;53.550;9.964;2023-04-05T01:52:03;4.28;;;3.30;;
37284;SDS011;23172;53.550;9.964;2023-04-05T01:57:05;5.28;;;3.88;;
37284;SDS011;23172;53.550;9.964;2023-04-05T02:02:09;4.63;;;3.47;;
37284;SDS011;23172;53.550;9.964;2023-04-05T02:07:11;3.17;;;2.88;;
37284;SDS011;23172;53.550;9.964;2023-04-05T02:12:12;5.53;;;3.63;;
37284;SDS011;23172;53.550;9.964;2023-04-05T02:17:16;3.80;;;3.00;;
37284;SDS011;23172;53.550;9.964;2023-04-05T02:22:17;4.38;;;3.30;;
37284;SDS011;23172;53.550;9.964;2023-04-05T02:27:20;4.35;;;3.13;;
37284;SDS011;23172;53.550;9.964;2023-04-05T02:32:23;5.30;;;3.17;;
37284;SDS011;23172;53.550;9.964;2023-04-05T02:37:25;5.93;;;3.13;;
37284;SDS011;23172;53.550;9.964;2023-04-05T02:42:27;4.63;;;3.20;;
37284;SDS011;23172;53.550;9.964;2023-04-05T02:47:30;4.82;;;2.95;;
37284;SDS011;23172;53.550;9.964;2023-04-05T02:52:32;5.57;;;3.53;;
37284;SDS011;23172;53.550;9.964;2023-04-05T02:57:36;5.00;;;3.63;;
37284;SDS011;23172;53.550;9.964;2023-04-05T03:02:40;6.38;;;4.25;;
37284;SDS011;23172;53.550;9.964;2023-04-05T03:07:42;8.80;;;4.40;;
37284;SDS011;23172;53.550;9.964;2023-04-05T03:12:46;7.55;;;4.80;;
37284;SDS011;23172;53.550;9.964;2023-04-05T03:17:51;8.80;;;5.43;;
37284;SDS011;23172;53.550;9.964;2023-04-05T03:22:53;7.88;;;4.90;;
37284;SDS011;23172;53.550;9.964;2023-04-05T03:27:55;8.57;;;5.88;;
37284;SDS011;23172;53.550;9.964;2023-04-05T03:32:59;5.53;;;3.90;;
37284;SDS011;23172;53.550;9.964;2023-04-05T03:38:02;5.47;;;3.78;;
37284;SDS011;23172;53.550;9.964;2023-04-05T03:43:03;9.13;;;5.35;;
37284;SDS011;23172;53.550;9.964;2023-04-05T03:48:07;9.63;;;6.22;;
37284;SDS011;23172;53.550;9.964;2023-04-05T03:53:08;8.10;;;5.80;;
37284;SDS011;23172;53.550;9.964;2023-04-05T03:58:10;6.97;;;4.88;;
37284;SDS011;23172;53.550;9.964;2023-04-05T04:03:14;4.95;;;4.03;;
37284;SDS011;23172;53.550;9.964;2023-04-05T04:08:15;5.85;;;4.40;;
37284;SDS011;23172;53.550;9.964;2023-04-05T04:13:17;5.85;;;4.53;;
37284;SDS011;23172;53.550;9.964;2023-04-05T04:18:21;6.18;;;3.97;;
37284;SDS011;23172;53.550;9.964;2023-04-05T04:23:22;5.78;;;3.97;;
37284;SDS011;23172;53.550;9.964;2023-04-05T04:28:26;6.15;;;3.55;;
37284;SDS011;23172;53.550;9.964;2023-04-05T04:33:30;6.47;;;4.30;;
37284;SDS011;23172;53.550;9.964;2023-04-05T04:38:33;5.65;;;3.80;;
37284;SDS011;23172;53.550;9.964;2023-04-05T04:43:35;5.47;;;3.63;;
37284;SDS011;23172;53.550;9.964;2023-04-05T04:48:44;5.10;;;3.35;;
37284;SDS011;23172;53.550;9.964;2023-04-05T04:53:47;4.80;;;3.60;;
37284;SDS011;23172;53.550;9.964;2023-04-05T04:58:48;5.72;;;4.15;;
37284;SDS011;23172;53.550;9.964;2023-04-05T05:03:52;7.15;;;4.45;;
37284;SDS011;23172;53.550;9.964;2023-04-05T05:08:54;5.38;;;3.53;;
37284;SDS011;23172;53.550;9.964;2023-04-05T05:13:56;6.00;;;3.60;;
37284;SDS011;23172;53.550;9.964;2023-04-05T05:18:59;4.45;;;3.42;;
37284;SDS011;23172;53.550;9.964;2023-04-05T05:24:01;4.03;;;3.28;;
37284;SDS011;23172;53.550;9.964;2023-04-05T05:29:03;7.43;;;4.78;;
37284;SDS011;23172;53.550;9.964;2023-04-05T05:34:06;6.40;;;3.65;;
37284;SDS011;23172;53.550;9.964;2023-04-05T05:39:08;9.63;;;5.65;;
37284;SDS011;23172;53.550;9.964;2023-04-05T05:44:11;5.15;;;3.67;;
37284;SDS011;23172;53.550;9.964;2023-04-05T05:49:15;5.00;;;3.58;;
37284;SDS011;23172;53.550;9.964;2023-04-05T05:54:17;4.65;;;3.72;;
37284;SDS011;23172;53.550;9.964;2023-04-05T05:59:19;6.68;;;4.35;;
37284;SDS011;23172;53.550;9.964;2023-04-05T06:04:22;6.40;;;3.92;;
37284;SDS011;23172;53.550;9.964;2023-04-05T06:09:24;4.43;;;3.28;;
37284;SDS011;23172;53.550;9.964;2023-04-05T06:14:26;5.18;;;3.22;;
37284;SDS011;23172;53.550;9.964;2023-04-05T06:19:30;5.63;;;3.95;;
37284;SDS011;23172;53.550;9.964;2023-04-05T06:24:32;8.23;;;5.18;;
37284;SDS011;23172;53.550;9.964;2023-04-05T06:29:34;6.72;;;4.63;;
37284;SDS011;23172;53.550;9.964;2023-04-05T06:34:37;5.13;;;3.72;;
37284;SDS011;23172;53.550;9.964;2023-04-05T06:39:39;7.78;;;4.45;;
37284;SDS011;23172;53.550;9.964;2023-04-05T06:44:41;9.68;;;6.70;;
37284;SDS011;23172;53.550;9.964;2023-04-05T06:49:44;7.72;;;5.40;;
37284;SDS011;23172;53.550;9.964;2023-04-05T06:54:46;8.10;;;4.53;;
37284;SDS011;23172;53.550;9.964;2023-04-05T06:59:47;7.15;;;4.93;;
37284;SDS011;23172;53.550;9.964;2023-04-05T07:04:51;6.75;;;4.13;;
37284;SDS011;23172;53.550;9.964;2023-04-05T07:09:53;6.72;;;4.10;;
37284;SDS011;23172;53.550;9.964;2023-04-05T07:14:55;6.88;;;3.80;;
37284;SDS011;23172;53.550;9.964;2023-04-05T07:19:58;6.53;;;3.50;;
37284;SDS011;23172;53.550;9.964;2023-04-05T07:25:00;7.15;;;4.28;;
37284;SDS011;23172;53.550;9.964;2023-04-05T07:30:02;10.00;;;5.22;;
37284;SDS011;23172;53.550;9.964;2023-04-05T07:35:07;6.07;;;3.53;;
37284;SDS011;23172;53.550;9.964;2023-04-05T07:40:09;6.28;;;4.28;;
37284;SDS011;23172;53.550;9.964;2023-04-05T07:45:12;6.15;;;3.58;;
37284;SDS011;23172;53.550;9.964;2023-04-05T07:50:15;8.20;;;4.07;;
37284;SDS011;23172;53.550;9.964;2023-04-05T07:55:17;8.98;;;5.13;;
37284;SDS011;23172;53.550;9.964;2023-04-05T08:00:19;29.15;;;26.60;;
37284;SDS011;23172;53.550;9.964;2023-04-05T08:05:23;94.53;;;87.60;;
37284;SDS011;23172;53.550;9.964;2023-04-05T08:10:27;305.30;;;284.92;;
37284;SDS011;23172;53.550;9.964;2023-04-05T08:15:29;908.42;;;834.53;;
37284;SDS011;23172;53.550;9.964;2023-04-05T08:20:36;1088.60;;;978.65;;
37284;SDS011;23172;53.550;9.964;2023-04-05T08:25:39;1537.78;;;999.90;;
37284;SDS011;23172;53.550;9.964;2023-04-05T08:30:41;1998.50;;;926.72;;
37284;SDS011;23172;53.550;9.964;2023-04-05T08:35:45;1914.72;;;598.28;;
37284;SDS011;23172;53.550;9.964;2023-04-05T08:40:47;1999.90;;;999.90;;
37284;SDS011;23172;53.550;9.964;2023-04-05T08:45:49;1999.90;;;999.90;;
37284;SDS011;23172;53.550;9.964;2023-04-05T08:50:53;1999.90;;;999.90;;
37284;SDS011;23172;53.550;9.964;2023-04-05T08:55:55;1999.90;;;999.90;;
37284;SDS011;23172;53.550;9.964;2023-04-05T09:00:58;1999.90;;;999.90;;
37284;SDS011;23172;53.550;9.964;2023-04-05T09:06:03;1999.90;;;999.90;;
37284;SDS011;23172;53.550;9.964;2023-04-05T09:11:07;1999.90;;;999.90;;
37284;SDS011;23172;53.550;9.964;2023-04-05T09:16:11;1999.90;;;999.90;;
37284;SDS011;23172;53.550;9.964;2023-04-05T09:21:16;1999.90;;;999.90;;
37284;SDS011;23172;53.550;9.964;2023-04-05T09:26:20;1999.90;;;999.90;;
37284;SDS011;23172;53.550;9.964;2023-04-05T09:31:30;1999.90;;;819.60;;
37284;SDS011;23172;53.550;9.964;2023-04-05T09:36:35;1914.10;;;999.90;;
37284;SDS011;23172;53.550;9.964;2023-04-05T09:41:43;1069.93;;;968.05;;
37284;SDS011;23172;53.550;9.964;2023-04-05T09:47:14;732.95;;;687.70;;
37284;SDS011;23172;53.550;9.964;2023-04-05T09:52:19;384.77;;;367.25;;
37284;SDS011;23172;53.550;9.964;2023-04-05T09:57:22;205.40;;;196.27;;
37284;SDS011;23172;53.550;9.964;2023-04-05T10:02:33;59.80;;;56.47;;
37284;SDS011;23172;53.550;9.964;2023-04-05T10:07:37;18.50;;;17.45;;
37284;SDS011;23172;53.550;9.964;2023-04-05T10:12:39;7.03;;;6.47;;
37284;SDS011;23172;53.550;9.964;2023-04-05T10:17:45;5.65;;;5.25;;
37284;SDS011;23172;53.550;9.964;2023-04-05T10:23:00;5.13;;;4.50;;
37284;SDS011;23172;53.550;9.964;2023-04-05T10:28:08;2.85;;;2.45;;
37284;SDS011;23172;53.550;9.964;2023-04-05T10:33:13;3.85;;;2.65;;
37284;SDS011;23172;53.550;9.964;2023-04-05T10:38:23;10.82;;;7.15;;
37284;SDS011;23172;53.550;9.964;2023-04-05T10:43:27;5.55;;;4.25;;
37284;SDS011;23172;53.550;9.964;2023-04-05T10:48:36;12.55;;;8.90;;
37284;SDS011;23172;53.550;9.964;2023-04-05T10:53:46;5.43;;;4.85;;
37284;SDS011;23172;53.550;9.964;2023-04-05T10:58:50;6.97;;;4.78;;
37284;SDS011;23172;53.550;9.964;2023-04-05T11:03:53;4.25;;;3.85;;
37284;SDS011;23172;53.550;9.964;2023-04-05T11:08:57;12.55;;;7.78;;
37284;SDS011;23172;53.550;9.964;2023-04-05T11:14:18;7.57;;;5.75;;
37284;SDS011;23172;53.550;9.964;2023-04-05T11:24:53;5.38;;;4.70;;
37284;SDS011;23172;53.550;9.964;2023-04-05T11:29:57;3.05;;;2.67;;
37284;SDS011;23172;53.550;9.964;2023-04-05T11:35:04;3.97;;;3.58;;
37284;SDS011;23172;53.550;9.964;2023-04-05T11:40:27;3.00;;;2.47;;
37284;SDS011;23172;53.550;9.964;2023-04-05T11:45:30;23.08;;;16.05;;
37284;SDS011;23172;53.550;9.964;2023-04-05T11:50:33;5.13;;;3.95;;
37284;SDS011;23172;53.550;9.964;2023-04-05T11:55:37;5.70;;;4.22;;
37284;SDS011;23172;53.550;9.964;2023-04-05T12:00:40;13.20;;;9.70;;
37284;SDS011;23172;53.550;9.964;2023-04-05T12:05:46;4.97;;;4.45;;
37284;SDS011;23172;53.550;9.964;2023-04-05T12:10:56;15.10;;;11.25;;
37284;SDS011;23172;53.550;9.964;2023-04-05T12:16:00;7.13;;;5.70;;
37284;SDS011;23172;53.550;9.964;2023-04-05T12:21:03;9.27;;;7.68;;
37284;SDS011;23172;53.550;9.964;2023-04-05T12:26:08;6.82;;;6.22;;
37284;SDS011;23172;53.550;9.964;2023-04-05T12:31:10;5.70;;;5.20;;
37284;SDS011;23172;53.550;9.964;2023-04-05T12:36:12;5.43;;;4.00;;
37284;SDS011;23172;53.550;9.964;2023-04-05T12:41:16;5.43;;;4.20;;
37284;SDS011;23172;53.550;9.964;2023-04-05T12:46:37;8.18;;;6.28;;
37284;SDS011;23172;53.550;9.964;2023-04-05T12:51:43;5.55;;;4.18;;
37284;SDS011;23172;53.550;9.964;2023-04-05T12:56:47;39.60;;;28.48;;
37284;SDS011;23172;53.550;9.964;2023-04-05T13:01:51;19.00;;;13.48;;
37284;SDS011;23172;53.550;9.964;2023-04-05T13:06:53;8.20;;;6.10;;
37284;SDS011;23172;53.550;9.964;2023-04-05T13:11:56;33.80;;;20.77;;
37284;SDS011;23172;53.550;9.964;2023-04-05T13:16:58;24.80;;;15.77;;
37284;SDS011;23172;53.550;9.964;2023-04-05T13:22:00;13.20;;;9.65;;
37284;SDS011;23172;53.550;9.964;2023-04-05T13:27:04;8.10;;;6.20;;
37284;SDS011;23172;53.550;9.964;2023-04-05T13:32:06;7.88;;;6.28;;
37284;SDS011;23172;53.550;9.964;2023-04-05T13:37:08;8.75;;;4.82;;
37284;SDS011;23172;53.550;9.964;2023-04-05T13:42:11;6.47;;;5.57;;
37284;SDS011;23172;53.550;9.964;2023-04-05T13:47:13;5.53;;;4.45;;
37284;SDS011;23172;53.550;9.964;2023-04-05T13:52:15;4.60;;;4.03;;
37284;SDS011;23172;53.550;9.964;2023-04-05T13:57:19;3.58;;;3.25;;
37284;SDS011;23172;53.550;9.964;2023-04-05T14:02:21;4.15;;;3.40;;
37284;SDS011;23172;53.550;9.964;2023-04-05T14:07:24;4.53;;;4.13;;
37284;SDS011;23172;53.550;9.964;2023-04-05T14:12:28;5.22;;;3.58;;
37284;SDS011;23172;53.550;9.964;2023-04-05T14:17:30;9.98;;;7.10;;
37284;SDS011;23172;53.550;9.964;2023-04-05T14:22:32;4.28;;;3.60;;
37284;SDS011;23172;53.550;9.964;2023-04-05T14:27:35;4.07;;;3.67;;
37284;SDS011;23172;53.550;9.964;2023-04-05T14:32:41;5.55;;;4.30;;
37284;SDS011;23172;53.550;9.964;2023-04-05T14:37:44;9.75;;;7.30;;
37284;SDS011;23172;53.550;9.964;2023-04-05T14:42:47;7.05;;;4.85;;
37284;SDS011;23172;53.550;9.964;2023-04-05T14:47:49;7.38;;;6.40;;
37284;SDS011;23172;53.550;9.964;2023-04-05T14:52:51;6.78;;;5.78;;
37284;SDS011;23172;53.550;9.964;2023-04-05T14:57:54;4.00;;;3.15;;
37284;SDS011;23172;53.550;9.964;2023-04-05T15:02:56;6.57;;;5.60;;
37284;SDS011;23172;53.550;9.964;2023-04-05T15:07:58;5.20;;;4.70;;
37284;SDS011;23172;53.550;9.964;2023-04-05T15:13:02;3.95;;;2.92;;
37284;SDS011;23172;53.550;9.964;2023-04-05T15:18:04;4.70;;;3.88;;
37284;SDS011;23172;53.550;9.964;2023-04-05T15:23:06;4.00;;;3.17;;
37284;SDS011;23172;53.550;9.964;2023-04-05T15:28:10;5.70;;;5.10;;
37284;SDS011;23172;53.550;9.964;2023-04-05T15:33:12;5.43;;;4.18;;
37284;SDS011;23172;53.550;9.964;2023-04-05T15:38:14;7.70;;;5.53;;
37284;SDS011;23172;53.550;9.964;2023-04-05T15:43:17;5.68;;;3.50;;
37284;SDS011;23172;53.550;9.964;2023-04-05T15:48:19;5.43;;;3.90;;
37284;SDS011;23172;53.550;9.964;2023-04-05T15:53:21;3.28;;;2.90;;
37284;SDS011;23172;53.550;9.964;2023-04-05T15:58:25;4.05;;;3.67;;
37284;SDS011;23172;53.550;9.964;2023-04-05T16:03:27;3.83;;;3.33;;
37284;SDS011;23172;53.550;9.964;2023-04-05T16:08:29;6.15;;;3.83;;
37284;SDS011;23172;53.550;9.964;2023-04-05T16:13:33;4.63;;;4.22;;
37284;SDS011;23172;53.550;9.964;2023-04-05T16:18:35;4.53;;;4.13;;
37284;SDS011;23172;53.550;9.964;2023-04-05T16:23:37;2.70;;;2.50;;
37284;SDS011;23172;53.550;9.964;2023-04-05T16:28:41;3.45;;;3.15;;
37284;SDS011;23172;53.550;9.964;2023-04-05T16:33:43;5.05;;;3.67;;
37284;SDS011;23172;53.550;9.964;2023-04-05T16:38:45;4.50;;;4.10;;
37284;SDS011;23172;53.550;9.964;2023-04-05T16:43:48;3.90;;;3.50;;
37284;SDS011;23172;53.550;9.964;2023-04-05T16:48:51;5.95;;;4.40;;
37284;SDS011;23172;53.550;9.964;2023-04-05T16:53:53;6.55;;;4.38;;
37284;SDS011;23172;53.550;9.964;2023-04-05T16:58:57;7.05;;;4.70;;
37284;SDS011;23172;53.550;9.964;2023-04-05T17:03:59;4.50;;;3.67;;
37284;SDS011;23172;53.550;9.964;2023-04-05T17:09:01;3.55;;;2.90;;
37284;SDS011;23172;53.550;9.964;2023-04-05T17:14:05;5.38;;;4.00;;
37284;SDS011;23172;53.550;9.964;2023-04-05T17:19:07;3.95;;;3.55;;
37284;SDS011;23172;53.550;9.964;2023-04-05T17:24:08;6.05;;;4.00;;
37284;SDS011;23172;53.550;9.964;2023-04-05T17:29:12;5.88;;;4.53;;
37284;SDS011;23172;53.550;9.964;2023-04-05T17:34:16;5.32;;;4.03;;
37284;SDS011;23172;53.550;9.964;2023-04-05T17:39:18;5.55;;;4.72;;
37284;SDS011;23172;53.550;9.964;2023-04-05T17:44:21;4.00;;;3.60;;
37284;SDS011;23172;53.550;9.964;2023-04-05T17:49:24;4.53;;;3.40;;
37284;SDS011;23172;53.550;9.964;2023-04-05T17:54:26;4.80;;;3.72;;
37284;SDS011;23172;53.550;9.964;2023-04-05T17:59:30;5.28;;;3.63;;
37284;SDS011;23172;53.550;9.964;2023-04-05T18:04:32;5.40;;;4.65;;
37284;SDS011;23172;53.550;9.964;2023-04-05T18:09:34;9.68;;;7.25;;
37284;SDS011;23172;53.550;9.964;2023-04-05T18:14:42;8.13;;;6.00;;
37284;SDS011;23172;53.550;9.964;2023-04-05T18:19:44;5.70;;;4.43;;
37284;SDS011;23172;53.550;9.964;2023-04-05T18:24:48;5.40;;;4.60;;
37284;SDS011;23172;53.550;9.964;2023-04-05T18:29:51;6.28;;;4.60;;
37284;SDS011;23172;53.550;9.964;2023-04-05T18:34:53;10.10;;;6.13;;
37284;SDS011;23172;53.550;9.964;2023-04-05T18:39:55;7.18;;;5.30;;
37284;SDS011;23172;53.550;9.964;2023-04-05T18:44:59;5.53;;;4.45;;
37284;SDS011;23172;53.550;9.964;2023-04-05T18:50:01;4.32;;;3.33;;
37284;SDS011;23172;53.550;9.964;2023-04-05T18:55:03;3.65;;;3.05;;
37284;SDS011;23172;53.550;9.964;2023-04-05T19:00:08;4.60;;;3.40;;
37284;SDS011;23172;53.550;9.964;2023-04-05T19:05:10;4.45;;;3.50;;
37284;SDS011;23172;53.550;9.964;2023-04-05T19:10:12;4.28;;;3.40;;
37284;SDS011;23172;53.550;9.964;2023-04-05T19:15:16;3.33;;;2.83;;
37284;SDS011;23172;53.550;9.964;2023-04-05T19:20:18;4.45;;;2.63;;
37284;SDS011;23172;53.550;9.964;2023-04-05T19:25:21;3.97;;;3.05;;
37284;SDS011;23172;53.550;9.964;2023-04-05T19:30:24;3.10;;;2.40;;
37284;SDS011;23172;53.550;9.964;2023-04-05T19:35:26;3.33;;;2.83;;
37284;SDS011;23172;53.550;9.964;2023-04-05T19:40:28;3.55;;;2.50;;
37284;SDS011;23172;53.550;9.964;2023-04-05T19:45:32;3.15;;;2.60;;
37284;SDS011;23172;53.550;9.964;2023-04-05T19:50:44;3.65;;;2.67;;
37284;SDS011;23172;53.550;9.964;2023-04-05T19:55:47;2.55;;;1.98;;
37284;SDS011;23172;53.550;9.964;2023-04-05T20:00:51;5.57;;;3.00;;
37284;SDS011;23172;53.550;9.964;2023-04-05T20:06:00;3.20;;;2.60;;
37284;SDS011;23172;53.550;9.964;2023-04-05T20:11:09;4.43;;;2.70;;
37284;SDS011;23172;53.550;9.964;2023-04-05T20:16:13;5.57;;;3.92;;
37284;SDS011;23172;53.550;9.964;2023-04-05T20:21:16;3.95;;;2.83;;
37284;SDS011;23172;53.550;9.964;2023-04-05T20:26:21;3.50;;;2.58;;
37284;SDS011;23172;53.550;9.964;2023-04-05T20:31:29;2.88;;;2.47;;
37284;SDS011;23172;53.550;9.964;2023-04-05T20:36:32;5.07;;;3.78;;
37284;SDS011;23172;53.550;9.964;2023-04-05T20:41:36;2.40;;;2.20;;
37284;SDS011;23172;53.550;9.964;2023-04-05T20:46:39;2.38;;;2.17;;
37284;SDS011;23172;53.550;9.964;2023-04-05T20:51:42;4.28;;;2.70;;
37284;SDS011;23172;53.550;9.964;2023-04-05T20:56:44;3.40;;;2.60;;
37284;SDS011;23172;53.550;9.964;2023-04-05T21:01:47;2.17;;;1.98;;
37284;SDS011;23172;53.550;9.964;2023-04-05T21:06:49;5.03;;;3.05;;
37284;SDS011;23172;53.550;9.964;2023-04-05T21:11:51;3.22;;;2.53;;
37284;SDS011;23172;53.550;9.964;2023-04-05T21:16:55;4.40;;;3.10;;
37284;SDS011;23172;53.550;9.964;2023-04-05T21:21:57;2.83;;;2.20;;
37284;SDS011;23172;53.550;9.964;2023-04-05T21:26:59;3.63;;;2.30;;
37284;SDS011;23172;53.550;9.964;2023-04-05T21:32:03;3.20;;;2.30;;
37284;SDS011;23172;53.550;9.964;2023-04-05T21:37:05;3.17;;;2.15;;
37284;SDS011;23172;53.550;9.964;2023-04-05T21:42:07;3.15;;;2.20;;
37284;SDS011;23172;53.550;9.964;2023-04-05T21:47:11;2.50;;;2.10;;
37284;SDS011;23172;53.550;9.964;2023-04-05T21:52:13;3.90;;;3.35;;
37284;SDS011;23172;53.550;9.964;2023-04-05T21:57:15;4.18;;;2.92;;
37284;SDS011;23172;53.550;9.964;2023-04-05T22:02:18;3.08;;;2.05;;
37284;SDS011;23172;53.550;9.964;2023-04-05T22:07:20;3.67;;;3.00;;
37284;SDS011;23172;53.550;9.964;2023-04-05T22:12:22;3.70;;;3.00;;
37284;SDS011;23172;53.550;9.964;2023-04-05T22:17:26;6.95;;;5.68;;
37284;SDS011;23172;53.550;9.964;2023-04-05T22:22:28;8.07;;;6.25;;
37284;SDS011;23172;53.550;9.964;2023-04-05T22:27:30;8.38;;;6.57;;
37284;SDS011;23172;53.550;9.964;2023-04-05T22:37:39;10.88;;;8.35;;
37284;SDS011;23172;53.550;9.964;2023-04-05T22:42:41;7.15;;;5.57;;
37284;SDS011;23172;53.550;9.964;2023-04-05T22:47:43;5.45;;;4.28;;
37284;SDS011;23172;53.550;9.964;2023-04-05T22:52:46;5.97;;;3.58;;
37284;SDS011;23172;53.550;9.964;2023-04-05T22:57:48;5.88;;;3.95;;
37284;SDS011;23172;53.550;9.964;2023-04-05T23:02:50;7.47;;;5.40;;
37284;SDS011;23172;53.550;9.964;2023-04-05T23:07:53;8.48;;;6.05;;
37284;SDS011;23172;53.550;9.964;2023-04-05T23:12:55;5.05;;;3.92;;
37284;SDS011;23172;53.550;9.964;2023-04-05T23:17:57;5.63;;;4.07;;
37284;SDS011;23172;53.550;9.964;2023-04-05T23:23:01;3.97;;;3.55;;
37284;SDS011;23172;53.550;9.964;2023-04-05T23:28:03;9.07;;;7.65;;
37284;SDS011;23172;53.550;9.964;2023-04-05T23:33:05;4.18;;;3.50;;
37284;SDS011;23172;53.550;9.964;2023-04-05T23:38:08;4.05;;;3.28;;
37284;SDS011;23172;53.550;9.964;2023-04-05T23:43:11;6.72;;;4.80;;
37284;SDS011;23172;53.550;9.964;2023-04-05T23:48:13;10.52;;;8.15;;
37284;SDS011;23172;53.550;9.964;2023-04-05T23:53:16;8.90;;;6.35;;
37284;SDS011;23172;53.550;9.964;2023-04-05T23:58:18;5.78;;;4.20;;
